Time;durP1;ratioP1;P1;durP2;ratioP2;P2;SDS_P1;SDS_P2;PMS_P1;PMS_P2;Temp;Humidity;BMP_temperature;BMP_pressure;BME280_temperature;BME280_humidity;BME280_pressure;Samples;Min_cycle;Max_cycle;Signal;HPM_P1;HPM_P2
2023/05/15 05:03:28;;;;;;;;;49.75;40.50;;;;;;;;4960579;22;11557;-76
2023/05/15 05:05:53;;;;;;;;;55.25;44.25;;;;;;;;6280232;22;11595;-77
2023/05/15 05:08:18;;;;;;;;;48.25;39.75;;;;;;;;6280424;22;8789;-76
2023/05/15 05:10:43;;;;;;;;;47.50;37.25;;;;;;;;6253583;22;8888;-78
2023/05/15 05:13:08;;;;;;;;;52.50;41.00;;;;;;;;6280726;22;8781;-80
2023/05/15 05:15:34;;;;;;;;;50.75;40.00;;;;;;;;6281988;22;8774;-84
2023/05/15 05:17:59;;;;;;;;;54.75;41.75;;;;;;;;6281897;22;8772;-88
2023/05/15 05:20:24;;;;;;;;;52.75;42.50;;;;;;;;6282147;22;8845;-82
2023/05/15 05:22:49;;;;;;;;;51.00;41.00;;;;;;;;6282931;22;9537;-82
2023/05/15 05:25:15;;;;;;;;;52.50;43.50;;;;;;;;6254740;22;9515;-82
2023/05/15 05:27:40;;;;;;;;;44.50;38.75;;;;;;;;6281185;22;8758;-81
2023/05/15 05:30:06;;;;;;;;;50.50;41.25;;;;;;;;6281507;22;8782;-79
2023/05/15 05:32:31;;;;;;;;;52.25;41.50;;;;;;;;6253031;22;8842;-77
2023/05/15 05:34:56;;;;;;;;;51.25;42.50;;;;;;;;6280967;22;8781;-76
2023/05/15 05:37:21;;;;;;;;;42.25;36.75;;;;;;;;6253949;22;8785;-77
2023/05/15 05:39:47;;;;;;;;;50.00;42.25;;;;;;;;6280599;22;8775;-75
2023/05/15 05:42:12;;;;;;;;;54.25;40.25;;;;;;;;6280892;22;8793;-77
2023/05/15 05:44:37;;;;;;;;;49.50;39.75;;;;;;;;6280587;22;8859;-76
2023/05/15 05:47:02;;;;;;;;;51.25;42.00;;;;;;;;6280108;22;8767;-77
2023/05/15 05:49:27;;;;;;;;;48.75;40.00;;;;;;;;6280317;22;8862;-77
2023/05/15 05:51:53;;;;;;;;;46.50;37.50;;;;;;;;6280567;22;8750;-78
2023/05/15 05:54:18;;;;;;;;;56.75;42.25;;;;;;;;6281181;22;8887;-79
2023/05/15 05:56:43;;;;;;;;;51.50;42.00;;;;;;;;6281849;22;8778;-78
2023/05/15 05:59:09;;;;;;;;;51.00;41.25;;;;;;;;6280019;22;8750;-78
2023/05/15 06:01:34;;;;;;;;;51.25;39.75;;;;;;;;6280537;22;8750;-77
2023/05/15 06:04:00;;;;;;;;;54.75;40.75;;;;;;;;6279978;22;8766;-79
2023/05/15 06:06:25;;;;;;;;;45.25;38.50;;;;;;;;6281249;22;9573;-80
2023/05/15 06:08:50;;;;;;;;;58.75;45.75;;;;;;;;6281394;22;8739;-79
2023/05/15 06:11:15;;;;;;;;;53.00;44.25;;;;;;;;6281127;22;8908;-77
2023/05/15 06:13:42;;;;;;;;;49.25;40.25;;;;;;;;6280562;22;8742;-77
2023/05/15 06:16:07;;;;;;;;;48.00;41.25;;;;;;;;6281694;22;8740;-77
2023/05/15 06:18:32;;;;;;;;;52.00;43.50;;;;;;;;6281454;22;11558;-74
2023/05/15 06:20:59;;;;;;;;;51.50;39.50;;;;;;;;6282293;22;8746;-77
2023/05/15 06:23:24;;;;;;;;;52.50;42.50;;;;;;;;6282066;22;8722;-73
2023/05/15 06:25:49;;;;;;;;;55.75;41.75;;;;;;;;6276115;22;11477;-80
2023/05/15 06:28:14;;;;;;;;;53.50;42.25;;;;;;;;6272443;22;8747;-79
2023/05/15 06:30:40;;;;;;;;;49.75;39.50;;;;;;;;6274300;22;8762;-76
2023/05/15 06:33:05;;;;;;;;;52.00;41.00;;;;;;;;6281018;22;8742;-76
2023/05/15 06:35:30;;;;;;;;;52.50;42.75;;;;;;;;6281658;22;8750;-76
2023/05/15 06:37:55;;;;;;;;;48.75;39.75;;;;;;;;6281689;22;8795;-72
2023/05/15 06:40:21;;;;;;;;;53.00;42.50;;;;;;;;6280019;22;9478;-76
2023/05/15 06:42:46;;;;;;;;;49.50;40.75;;;;;;;;6281107;22;8742;-77
2023/05/15 06:45:11;;;;;;;;;45.75;36.50;;;;;;;;6280241;22;8847;-76
2023/05/15 06:47:36;;;;;;;;;38.00;35.00;;;;;;;;6279567;22;9315;-76
2023/05/15 06:50:03;;;;;;;;;52.00;40.25;;;;;;;;6279724;22;8790;-77
2023/05/15 06:52:28;;;;;;;;;49.00;38.00;;;;;;;;6279603;22;8800;-77
2023/05/15 06:54:53;;;;;;;;;44.75;38.00;;;;;;;;6280133;22;11578;-76
2023/05/15 06:57:18;;;;;;;;;41.25;35.00;;;;;;;;6280351;22;8793;-76
2023/05/15 06:59:44;;;;;;;;;44.75;37.00;;;;;;;;6252807;22;8860;-75
2023/05/15 07:02:09;;;;;;;;;40.00;35.25;;;;;;;;6279907;22;8746;-73
2023/05/15 07:04:34;;;;;;;;;40.50;35.00;;;;;;;;6280090;22;8803;-74
2023/05/15 07:06:59;;;;;;;;;46.75;36.75;;;;;;;;6279262;22;8739;-77
2023/05/15 07:09:25;;;;;;;;;45.00;35.75;;;;;;;;6279410;22;8767;-78
2023/05/15 07:11:50;;;;;;;;;48.25;40.00;;;;;;;;6279566;22;8773;-77
2023/05/15 07:14:15;;;;;;;;;37.50;34.50;;;;;;;;6279487;22;8760;-77
2023/05/15 07:16:40;;;;;;;;;50.50;36.25;;;;;;;;6279669;22;8872;-77
2023/05/15 07:19:07;;;;;;;;;36.50;32.25;;;;;;;;6279971;22;8758;-77
2023/05/15 07:21:32;;;;;;;;;41.25;35.75;;;;;;;;6279817;22;8706;-77
2023/05/15 07:23:57;;;;;;;;;37.75;34.50;;;;;;;;6279640;22;11472;-78
2023/05/15 07:26:23;;;;;;;;;44.00;38.25;;;;;;;;6281478;22;8771;-78
2023/05/15 07:28:48;;;;;;;;;39.00;34.25;;;;;;;;6280364;22;8837;-77
2023/05/15 07:31:13;;;;;;;;;40.00;32.50;;;;;;;;6254292;22;8774;-78
2023/05/15 07:33:38;;;;;;;;;41.00;35.75;;;;;;;;6281580;22;8861;-78
2023/05/15 07:36:04;;;;;;;;;32.25;31.75;;;;;;;;6280213;22;8769;-77
2023/05/15 07:38:29;;;;;;;;;36.75;32.25;;;;;;;;6281584;22;8777;-77
2023/05/15 07:40:54;;;;;;;;;47.25;38.00;;;;;;;;6282522;22;8734;-77
2023/05/15 07:43:19;;;;;;;;;34.50;30.75;;;;;;;;6281853;22;8774;-77
2023/05/15 07:45:45;;;;;;;;;41.00;32.00;;;;;;;;6254347;22;8792;-76
2023/05/15 07:48:13;;;;;;;;;46.25;36.50;;;;;;;;6281281;22;8777;-77
2023/05/15 07:50:40;;;;;;;;;38.50;33.25;;;;;;;;6281126;22;8884;-76
2023/05/15 07:53:05;;;;;;;;;37.00;32.00;;;;;;;;6281069;22;11594;-77
2023/05/15 07:55:30;;;;;;;;;39.50;33.75;;;;;;;;6281134;22;8796;-77
2023/05/15 07:57:55;;;;;;;;;34.25;32.25;;;;;;;;6253473;22;9503;-77
2023/05/15 08:00:21;;;;;;;;;35.50;33.00;;;;;;;;6281626;22;8750;-77
2023/05/15 08:02:47;;;;;;;;;30.75;28.75;;;;;;;;6279954;22;8801;-76
2023/05/15 08:05:12;;;;;;;;;29.00;27.75;;;;;;;;6281286;22;8845;-77
2023/05/15 08:07:38;;;;;;;;;43.50;34.75;;;;;;;;6281189;22;11413;-77
2023/05/15 08:10:04;;;;;;;;;34.00;31.50;;;;;;;;6281324;22;8802;-77
2023/05/15 08:12:30;;;;;;;;;36.00;31.50;;;;;;;;6281016;22;8881;-77
2023/05/15 08:14:55;;;;;;;;;26.25;25.00;;;;;;;;6280967;22;12395;-76
2023/05/15 08:17:21;;;;;;;;;38.00;32.00;;;;;;;;6281132;22;8778;-77
2023/05/15 08:19:46;;;;;;;;;38.25;34.50;;;;;;;;6281729;22;8734;-76
2023/05/15 08:22:12;;;;;;;;;30.25;29.25;;;;;;;;6281201;22;8730;-76
2023/05/15 08:24:37;;;;;;;;;38.00;33.00;;;;;;;;6281360;22;8750;-77
2023/05/15 08:27:07;;;;;;;;;40.00;34.00;;;;;;;;6281947;22;8762;-76
2023/05/15 08:29:32;;;;;;;;;36.75;32.50;;;;;;;;6281573;22;8810;-77
2023/05/15 08:31:57;;;;;;;;;47.50;37.25;;;;;;;;6280992;22;12914;-77
2023/05/15 08:34:23;;;;;;;;;43.50;36.75;;;;;;;;6281455;22;8775;-77
2023/05/15 08:36:48;;;;;;;;;46.00;36.75;;;;;;;;6281536;22;8833;-76
2023/05/15 08:39:13;;;;;;;;;47.25;40.75;;;;;;;;6281143;22;9508;-77
2023/05/15 08:42:01;;;;;;;;;49.50;38.25;;;;;;;;6281215;22;8770;-77
2023/05/15 08:44:26;;;;;;;;;47.50;36.00;;;;;;;;6281226;22;8761;-77
2023/05/15 08:46:52;;;;;;;;;41.00;34.75;;;;;;;;6281552;22;11469;-77
2023/05/15 08:49:31;;;;;;;;;45.50;40.25;;;;;;;;6281199;22;8726;-77
2023/05/15 08:51:56;;;;;;;;;48.50;39.50;;;;;;;;6281879;22;11465;-77
2023/05/15 08:54:21;;;;;;;;;48.25;37.25;;;;;;;;6281497;22;11517;-78
2023/05/15 08:56:47;;;;;;;;;50.00;37.25;;;;;;;;6281469;22;8735;-77
2023/05/15 08:59:12;;;;;;;;;50.00;37.25;;;;;;;;6281324;22;8877;-77
2023/05/15 09:01:37;;;;;;;;;45.00;37.50;;;;;;;;6281604;22;8816;-77
2023/05/15 09:04:03;;;;;;;;;40.75;34.75;;;;;;;;6281111;22;8802;-77
2023/05/15 09:06:29;;;;;;;;;45.25;36.75;;;;;;;;6281249;22;8758;-76
2023/05/15 09:08:55;;;;;;;;;50.25;37.50;;;;;;;;6281126;22;9593;-78
2023/05/15 13:24:53;;;;;;;;;12.00;12.00;;;;;;;;6281606;22;1257684;-75
2023/05/15 13:27:18;;;;;;;;;13.00;12.50;;;;;;;;6326457;22;49937;-73
2023/05/15 13:29:43;;;;;;;;;12.25;10.75;;;;;;;;6326215;22;49557;-74
2023/05/15 13:32:09;;;;;;;;;13.25;10.50;;;;;;;;6297619;22;50051;-75
2023/05/15 13:34:34;;;;;;;;;13.00;9.25;;;;;;;;6325549;22;49578;-75
2023/05/15 13:36:59;;;;;;;;;15.00;13.50;;;;;;;;6325147;22;50354;-75
2023/05/15 13:39:24;;;;;;;;;15.00;13.25;;;;;;;;6324937;22;49904;-74
2023/05/15 13:41:49;;;;;;;;;11.75;11.00;;;;;;;;6326069;22;50241;-74
2023/05/15 13:44:15;;;;;;;;;13.75;12.75;;;;;;;;6325330;22;49997;-76
2023/05/15 13:46:40;;;;;;;;;13.00;11.50;;;;;;;;6324494;22;49772;-74
2023/05/15 13:49:05;;;;;;;;;13.00;11.50;;;;;;;;6325812;22;49894;-74
2023/05/15 13:51:30;;;;;;;;;10.50;10.25;;;;;;;;6325320;22;50116;-74
2023/05/15 13:53:55;;;;;;;;;10.50;8.25;;;;;;;;6325971;22;49874;-75
2023/05/15 13:56:21;;;;;;;;;15.00;12.25;;;;;;;;6324890;22;51412;-74
2023/05/15 13:58:46;;;;;;;;;13.75;13.75;;;;;;;;6326655;22;49933;-75
2023/05/15 14:01:11;;;;;;;;;16.50;14.25;;;;;;;;6326657;22;49892;-74
2023/05/15 14:03:36;;;;;;;;;14.75;14.75;;;;;;;;6326976;22;49986;-74
2023/05/15 14:06:02;;;;;;;;;13.00;12.25;;;;;;;;6326360;22;51347;-74
2023/05/15 14:08:27;;;;;;;;;17.00;15.25;;;;;;;;6325882;22;49705;-74
2023/05/15 14:10:52;;;;;;;;;14.00;12.75;;;;;;;;6327003;22;50046;-75
2023/05/15 14:13:17;;;;;;;;;16.50;14.25;;;;;;;;6298577;22;49957;-75
2023/05/15 14:15:42;;;;;;;;;17.00;15.50;;;;;;;;6325691;22;50414;-74
2023/05/15 14:18:07;;;;;;;;;13.75;13.50;;;;;;;;6326980;22;50259;-74
2023/05/15 14:20:33;;;;;;;;;16.75;15.00;;;;;;;;6326776;22;50152;-74
2023/05/15 14:22:58;;;;;;;;;22.75;20.75;;;;;;;;6326861;22;49526;-74
2023/05/15 14:25:23;;;;;;;;;19.75;15.50;;;;;;;;6325942;22;51420;-74
2023/05/15 14:27:48;;;;;;;;;20.50;18.00;;;;;;;;6326344;22;49641;-74
2023/05/15 14:30:13;;;;;;;;;26.00;22.75;;;;;;;;6326455;22;50072;-73
2023/05/15 14:32:39;;;;;;;;;26.25;24.00;;;;;;;;6326666;22;49969;-74
2023/05/15 14:35:04;;;;;;;;;28.25;25.25;;;;;;;;6365326;22;51076;-73
2023/05/15 14:37:29;;;;;;;;;23.75;23.75;;;;;;;;6374105;22;8756;-73
2023/05/15 14:39:55;;;;;;;;;20.75;18.75;;;;;;;;6374130;22;8744;-73
2023/05/15 14:42:20;;;;;;;;;15.00;15.00;;;;;;;;6374182;22;9547;-73
2023/05/15 14:44:45;;;;;;;;;18.00;15.75;;;;;;;;6373859;22;8866;-73
2023/05/15 14:47:11;;;;;;;;;16.25;14.50;;;;;;;;6374340;22;8732;-73
2023/05/15 14:49:37;;;;;;;;;17.25;16.25;;;;;;;;6373830;22;8736;-74
2023/05/15 14:52:03;;;;;;;;;15.00;15.00;;;;;;;;6373804;22;11416;-73
2023/05/15 14:54:28;;;;;;;;;16.75;16.75;;;;;;;;6373822;22;8728;-75
2023/05/15 14:56:53;;;;;;;;;18.75;17.75;;;;;;;;6373527;22;9467;-77
2023/05/15 14:59:18;;;;;;;;;22.75;19.75;;;;;;;;6346901;22;8760;-76
2023/05/15 15:01:45;;;;;;;;;11.75;11.75;;;;;;;;6375516;22;8784;-77
2023/05/15 15:04:10;;;;;;;;;13.75;11.50;;;;;;;;6375557;22;8716;-76
2023/05/15 15:06:35;;;;;;;;;9.25;9.25;;;;;;;;6375722;22;11104;-75
2023/05/15 15:09:00;;;;;;;;;10.25;8.00;;;;;;;;6343267;22;8870;-75
2023/05/15 15:11:26;;;;;;;;;10.75;10.25;;;;;;;;6344504;22;8775;-74
2023/05/15 15:13:51;;;;;;;;;13.25;13.25;;;;;;;;6374947;22;8783;-74
2023/05/15 15:16:16;;;;;;;;;10.75;10.75;;;;;;;;6375193;22;8832;-74
2023/05/15 15:18:41;;;;;;;;;5.75;5.75;;;;;;;;6375247;22;8894;-76
2023/05/15 15:21:07;;;;;;;;;6.25;6.25;;;;;;;;6374499;22;8776;-73
2023/05/15 15:23:32;;;;;;;;;6.00;6.00;;;;;;;;6346501;22;8767;-73
2023/05/15 15:25:57;;;;;;;;;12.00;9.00;;;;;;;;6375044;22;8775;-73
2023/05/15 15:28:22;;;;;;;;;10.00;10.00;;;;;;;;6375584;22;8770;-73
2023/05/15 15:30:47;;;;;;;;;9.25;8.00;;;;;;;;6375675;22;8779;-73
2023/05/15 15:33:12;;;;;;;;;10.25;8.75;;;;;;;;6375691;22;8752;-73
2023/05/15 15:35:38;;;;;;;;;8.75;8.75;;;;;;;;6375654;22;9888;-76
2023/05/15 15:38:04;;;;;;;;;10.00;8.25;;;;;;;;6346972;22;8866;-75
2023/05/15 15:40:29;;;;;;;;;6.00;6.00;;;;;;;;6374894;22;8841;-74
2023/05/15 15:42:54;;;;;;;;;9.00;9.00;;;;;;;;6375445;22;8787;-75
2023/05/15 15:45:19;;;;;;;;;7.50;7.50;;;;;;;;6374893;22;8852;-73
2023/05/15 15:47:45;;;;;;;;;5.25;5.25;;;;;;;;6346501;22;8871;-75
2023/05/15 15:50:10;;;;;;;;;2.25;2.25;;;;;;;;6375667;22;8791;-75
2023/05/15 15:52:35;;;;;;;;;4.00;4.00;;;;;;;;6374319;22;8759;-74
2023/05/15 15:55:00;;;;;;;;;2.00;2.00;;;;;;;;6346502;22;8795;-75
2023/05/15 15:57:26;;;;;;;;;4.25;3.25;;;;;;;;6374250;22;8849;-75
2023/05/15 15:59:51;;;;;;;;;3.00;3.00;;;;;;;;6373931;22;8798;-74
2023/05/15 16:02:16;;;;;;;;;4.00;4.00;;;;;;;;6375658;22;8793;-75
2023/05/15 16:04:42;;;;;;;;;6.00;5.75;;;;;;;;6375355;22;8777;-75
2023/05/15 16:07:07;;;;;;;;;4.00;4.00;;;;;;;;6375168;22;8825;-75
2023/05/15 16:09:32;;;;;;;;;6.00;5.00;;;;;;;;6372830;22;8764;-77
2023/05/15 16:11:58;;;;;;;;;7.50;7.50;;;;;;;;6375158;22;8740;-74
2023/05/15 16:14:23;;;;;;;;;10.00;9.00;;;;;;;;6375713;22;8756;-74
2023/05/15 16:16:49;;;;;;;;;6.00;5.00;;;;;;;;6375154;22;9460;-74
2023/05/15 16:19:15;;;;;;;;;11.50;11.00;;;;;;;;6373520;22;8741;-75
2023/05/15 16:21:40;;;;;;;;;10.25;8.75;;;;;;;;6371867;22;8789;-73
2023/05/15 16:24:05;;;;;;;;;10.25;10.25;;;;;;;;6374556;22;8779;-73
2023/05/15 16:26:30;;;;;;;;;4.25;4.25;;;;;;;;6375344;22;8878;-72
2023/05/15 16:28:56;;;;;;;;;12.00;10.75;;;;;;;;6346906;22;9483;-74
2023/05/15 16:31:21;;;;;;;;;11.00;11.00;;;;;;;;6374956;22;8792;-74
2023/05/15 16:33:46;;;;;;;;;8.75;8.75;;;;;;;;6346997;22;8877;-73
2023/05/15 16:36:12;;;;;;;;;18.75;15.75;;;;;;;;6375279;22;8763;-74
2023/05/15 16:38:37;;;;;;;;;13.25;12.75;;;;;;;;6374592;22;8744;-74
2023/05/15 16:41:02;;;;;;;;;13.50;13.00;;;;;;;;6375431;22;8759;-76
2023/05/15 16:43:28;;;;;;;;;10.00;10.00;;;;;;;;6375056;22;8826;-75
2023/05/15 16:45:53;;;;;;;;;12.00;10.25;;;;;;;;6375436;22;8774;-79
2023/05/15 16:48:18;;;;;;;;;10.00;10.00;;;;;;;;6375088;22;8759;-79
2023/05/15 16:50:43;;;;;;;;;14.75;13.00;;;;;;;;6374512;22;8944;-77
2023/05/15 16:53:08;;;;;;;;;11.00;11.00;;;;;;;;6374748;22;8768;-77
2023/05/15 16:55:33;;;;;;;;;7.50;7.50;;;;;;;;6374956;22;8744;-79
2023/05/15 16:57:59;;;;;;;;;9.75;9.75;;;;;;;;6375427;22;8764;-78
2023/05/15 17:00:24;;;;;;;;;5.75;5.75;;;;;;;;6373291;22;8787;-76
2023/05/15 17:02:49;;;;;;;;;10.00;10.00;;;;;;;;6374938;22;8767;-77
2023/05/15 17:05:15;;;;;;;;;12.00;9.25;;;;;;;;6346585;22;8799;-76
2023/05/15 17:07:41;;;;;;;;;7.00;7.00;;;;;;;;6321838;22;8775;-77
2023/05/15 17:10:06;;;;;;;;;7.25;7.25;;;;;;;;6376423;22;9500;-79
2023/05/15 17:12:32;;;;;;;;;11.75;11.50;;;;;;;;6375704;22;11419;-78
2023/05/15 17:14:57;;;;;;;;;14.00;12.00;;;;;;;;6373994;22;8744;-74
2023/05/15 17:17:24;;;;;;;;;6.00;5.50;;;;;;;;6344107;22;8871;-76
2023/05/15 17:19:49;;;;;;;;;6.00;6.00;;;;;;;;6374049;22;8752;-75
2023/05/15 17:22:14;;;;;;;;;12.00;11.00;;;;;;;;6374228;22;11376;-75
2023/05/15 17:24:40;;;;;;;;;11.00;11.00;;;;;;;;6373921;22;8760;-75
2023/05/15 17:27:05;;;;;;;;;10.25;10.25;;;;;;;;6373461;22;8752;-74
2023/05/15 17:29:30;;;;;;;;;11.75;9.75;;;;;;;;6374104;22;8768;-80
2023/05/15 17:31:55;;;;;;;;;7.25;7.25;;;;;;;;6375502;22;8768;-80
2023/05/15 17:34:20;;;;;;;;;5.25;5.25;;;;;;;;6376506;22;8756;-73
2023/05/15 17:36:46;;;;;;;;;11.50;9.00;;;;;;;;6347419;22;8767;-82
2023/05/15 17:39:11;;;;;;;;;10.00;7.50;;;;;;;;6347540;22;8914;-77
2023/05/15 17:41:36;;;;;;;;;7.00;5.75;;;;;;;;6376361;22;8768;-78
2023/05/15 17:44:02;;;;;;;;;14.00;11.00;;;;;;;;6347673;22;8756;-74
2023/05/15 17:46:27;;;;;;;;;11.50;10.25;;;;;;;;6375979;22;8817;-74
2023/05/15 17:48:52;;;;;;;;;9.50;9.50;;;;;;;;6376795;22;8833;-73
2023/05/15 17:51:18;;;;;;;;;12.25;12.00;;;;;;;;6371893;22;8792;-75
2023/05/15 17:53:43;;;;;;;;;13.75;12.25;;;;;;;;6376250;22;8759;-78
2023/05/15 17:56:08;;;;;;;;;14.25;14.25;;;;;;;;6376198;22;8778;-74
2023/05/15 17:58:33;;;;;;;;;4.50;4.00;;;;;;;;6374956;22;8771;-87
2023/05/15 18:00:58;;;;;;;;;15.00;12.00;;;;;;;;6378967;22;8775;-76
2023/05/15 18:03:24;;;;;;;;;13.75;12.25;;;;;;;;6375750;22;8763;-78
2023/05/15 18:05:50;;;;;;;;;11.25;11.00;;;;;;;;6376377;22;8841;-78
2023/05/15 18:08:15;;;;;;;;;12.75;12.00;;;;;;;;6376383;22;8838;-81
2023/05/15 18:10:40;;;;;;;;;12.00;10.00;;;;;;;;6376094;22;11521;-76
2023/05/15 18:13:06;;;;;;;;;11.00;11.00;;;;;;;;6373117;22;9565;-75
2023/05/15 18:15:31;;;;;;;;;14.75;12.75;;;;;;;;6376466;22;8787;-77
2023/05/15 18:17:56;;;;;;;;;10.00;10.00;;;;;;;;6376309;22;8735;-78
2023/05/15 18:20:21;;;;;;;;;12.00;10.50;;;;;;;;6376195;22;8771;-76
2023/05/15 18:22:47;;;;;;;;;10.75;9.25;;;;;;;;6376333;22;8751;-78
2023/05/15 18:25:12;;;;;;;;;11.00;11.00;;;;;;;;6375318;22;8780;-79
2023/05/15 18:27:37;;;;;;;;;9.00;8.75;;;;;;;;6376236;22;8732;-76
2023/05/15 18:30:03;;;;;;;;;8.50;8.50;;;;;;;;6375863;22;8795;-75
2023/05/15 18:32:28;;;;;;;;;16.00;11.75;;;;;;;;6376248;22;8834;-74
2023/05/15 18:34:53;;;;;;;;;11.75;11.00;;;;;;;;6375977;22;8795;-75
2023/05/15 18:37:18;;;;;;;;;11.00;10.00;;;;;;;;6376418;22;8837;-75
2023/05/15 18:39:44;;;;;;;;;15.00;13.25;;;;;;;;6375643;22;8771;-72
2023/05/15 18:42:09;;;;;;;;;10.50;10.50;;;;;;;;6375583;22;8773;-73
2023/05/15 18:44:35;;;;;;;;;10.00;9.75;;;;;;;;6376095;22;8763;-72
2023/05/15 18:47:01;;;;;;;;;8.00;8.00;;;;;;;;6375738;22;8764;-73
2023/05/15 18:49:29;;;;;;;;;10.00;9.00;;;;;;;;6375820;22;8824;-70
2023/05/15 18:51:54;;;;;;;;;12.25;11.25;;;;;;;;6376431;22;8732;-74
2023/05/15 18:54:19;;;;;;;;;11.75;11.25;;;;;;;;6375755;22;12113;-74
2023/05/15 18:56:44;;;;;;;;;8.75;8.75;;;;;;;;6375964;22;8790;-71
2023/05/15 18:59:10;;;;;;;;;10.00;9.25;;;;;;;;6375630;22;8770;-75
2023/05/15 19:01:35;;;;;;;;;7.50;7.50;;;;;;;;6375486;22;8863;-74
2023/05/15 19:04:02;;;;;;;;;7.25;6.00;;;;;;;;6347251;22;8834;-74
2023/05/15 19:06:27;;;;;;;;;10.50;7.25;;;;;;;;6375519;22;8845;-75
2023/05/15 19:08:52;;;;;;;;;11.25;9.50;;;;;;;;6376176;22;11135;-75
2023/05/15 19:11:18;;;;;;;;;11.00;10.00;;;;;;;;6376235;22;8776;-75
2023/05/15 19:13:43;;;;;;;;;8.00;6.75;;;;;;;;6375732;22;8825;-74
2023/05/15 19:16:09;;;;;;;;;5.25;5.25;;;;;;;;6376009;22;8752;-74
2023/05/15 19:18:34;;;;;;;;;10.50;8.25;;;;;;;;6375623;22;8751;-76
2023/05/15 19:20:59;;;;;;;;;10.75;10.25;;;;;;;;6375679;22;8744;-75
2023/05/15 19:23:25;;;;;;;;;12.00;11.00;;;;;;;;6375937;22;8840;-78
2023/05/15 19:25:50;;;;;;;;;9.00;9.00;;;;;;;;6375990;22;8794;-74
2023/05/15 19:28:15;;;;;;;;;10.25;10.25;;;;;;;;6376102;22;8744;-77
2023/05/15 19:30:40;;;;;;;;;6.25;6.25;;;;;;;;6376013;22;8772;-79
2023/05/15 19:33:05;;;;;;;;;5.25;5.25;;;;;;;;6375652;22;8740;-78
2023/05/15 19:35:31;;;;;;;;;7.00;7.00;;;;;;;;6373291;22;8760;-79
2023/05/15 19:37:56;;;;;;;;;6.50;6.00;;;;;;;;6376272;22;8771;-76
2023/05/15 19:40:21;;;;;;;;;12.00;10.75;;;;;;;;6375660;22;9571;-81
2023/05/15 19:42:46;;;;;;;;;10.00;9.00;;;;;;;;6374442;22;8767;-76
2023/05/15 19:45:12;;;;;;;;;12.50;10.75;;;;;;;;6374400;22;8780;-77
2023/05/15 19:47:37;;;;;;;;;11.00;9.25;;;;;;;;6375373;22;8759;-77
2023/05/15 19:50:02;;;;;;;;;12.75;9.50;;;;;;;;6375427;22;8763;-79
2023/05/15 19:52:28;;;;;;;;;9.75;6.00;;;;;;;;6375353;22;8748;-78
2023/05/15 19:54:53;;;;;;;;;6.00;6.00;;;;;;;;6374389;22;8752;-76
2023/05/15 19:57:18;;;;;;;;;9.00;7.25;;;;;;;;6375314;22;8768;-79
2023/05/15 19:59:43;;;;;;;;;10.75;9.75;;;;;;;;6373412;22;8740;-82
2023/05/15 20:02:09;;;;;;;;;6.50;5.50;;;;;;;;6374282;22;8919;-79
2023/05/15 20:04:34;;;;;;;;;7.00;7.00;;;;;;;;6374694;22;8790;-82
2023/05/15 20:06:59;;;;;;;;;7.00;6.50;;;;;;;;6375658;22;8793;-77
2023/05/15 20:09:25;;;;;;;;;6.00;6.00;;;;;;;;6374239;22;8843;-79
2023/05/15 20:11:50;;;;;;;;;6.00;5.50;;;;;;;;6375081;22;8833;-78
2023/05/15 20:14:16;;;;;;;;;8.75;8.50;;;;;;;;6375607;22;8756;-78
2023/05/15 20:16:41;;;;;;;;;9.50;7.25;;;;;;;;6374286;22;8873;-79
2023/05/15 20:19:06;;;;;;;;;5.00;4.00;;;;;;;;6373836;22;8732;-79
2023/05/15 20:21:31;;;;;;;;;4.75;4.75;;;;;;;;6373528;22;8756;-78
2023/05/15 20:23:56;;;;;;;;;5.75;5.25;;;;;;;;6372389;22;8763;-79
2023/05/15 20:26:22;;;;;;;;;7.50;7.25;;;;;;;;6373943;22;8790;-78
2023/05/15 20:28:47;;;;;;;;;3.00;1.00;;;;;;;;6373608;22;8752;-78
2023/05/15 20:31:12;;;;;;;;;9.50;8.75;;;;;;;;6373604;22;8794;-79
2023/05/15 20:33:38;;;;;;;;;9.00;4.75;;;;;;;;6369603;22;9512;-76
2023/05/15 20:36:04;;;;;;;;;6.50;6.50;;;;;;;;6373195;22;8842;-79
2023/05/15 20:38:29;;;;;;;;;8.25;8.25;;;;;;;;6374442;22;8758;-77
2023/05/15 20:40:55;;;;;;;;;8.25;8.25;;;;;;;;6375176;22;8944;-84
2023/05/15 20:43:20;;;;;;;;;6.25;6.00;;;;;;;;6374655;22;8728;-76
2023/05/15 20:45:45;;;;;;;;;9.50;5.00;;;;;;;;6374070;22;11359;-77
2023/05/15 20:48:11;;;;;;;;;6.75;6.75;;;;;;;;6346731;22;9269;-78
2023/05/15 20:50:36;;;;;;;;;9.00;9.00;;;;;;;;6374739;22;8788;-77
2023/05/15 20:53:01;;;;;;;;;9.25;9.25;;;;;;;;6374695;22;8763;-77
2023/05/15 20:55:26;;;;;;;;;8.00;8.00;;;;;;;;6374922;22;8775;-78
2023/05/15 20:57:51;;;;;;;;;6.25;5.25;;;;;;;;6374490;22;8748;-78
2023/05/15 21:00:17;;;;;;;;;9.50;7.75;;;;;;;;6374180;22;9505;-79
2023/05/15 21:02:43;;;;;;;;;9.75;9.50;;;;;;;;6375017;22;8732;-80
2023/05/15 21:05:08;;;;;;;;;10.50;9.00;;;;;;;;6368104;22;8846;-80
2023/05/15 21:07:33;;;;;;;;;11.75;8.00;;;;;;;;6375070;22;9710;-79
2023/05/15 21:09:58;;;;;;;;;10.50;9.25;;;;;;;;6374967;22;8772;-79
2023/05/15 21:12:24;;;;;;;;;7.00;6.50;;;;;;;;6374044;22;8768;-80
2023/05/15 21:14:49;;;;;;;;;5.00;5.00;;;;;;;;6373940;22;8752;-81
2023/05/15 21:17:14;;;;;;;;;6.50;6.50;;;;;;;;6374430;22;8802;-82
2023/05/15 21:19:39;;;;;;;;;9.75;8.75;;;;;;;;6373398;22;8748;-81
2023/05/15 21:22:05;;;;;;;;;6.50;6.50;;;;;;;;6375142;22;8825;-79
2023/05/15 21:24:30;;;;;;;;;5.75;5.25;;;;;;;;6373949;22;8756;-81
2023/05/15 21:26:56;;;;;;;;;11.00;7.50;;;;;;;;6373661;22;8759;-79
2023/05/15 21:29:21;;;;;;;;;7.75;7.75;;;;;;;;6373477;22;8872;-78
2023/05/15 21:31:46;;;;;;;;;11.75;10.50;;;;;;;;6373231;22;8852;-83
2023/05/15 21:34:11;;;;;;;;;10.75;9.00;;;;;;;;6368118;22;8794;-74
